createdAt,value
2018-11-04T00:01:57.649Z,85.90
2018-11-04T00:04:26.716Z,86.10
2018-11-04T00:06:55.845Z,86.10
2018-11-04T00:09:25.161Z,86.10
2018-11-04T00:11:54.267Z,85.90
2018-11-04T00:14:23.349Z,85.90
2018-11-04T00:16:52.579Z,85.80
2018-11-04T00:19:21.744Z,85.60
2018-11-04T00:21:50.822Z,85.60
2018-11-04T00:24:20.297Z,85.30
2018-11-04T00:26:49.489Z,85.30
2018-11-04T00:29:18.570Z,85.30
2018-11-04T00:31:47.639Z,85.30
2018-11-04T00:34:16.802Z,85.30
2018-11-04T00:36:45.897Z,85.50
2018-11-04T00:39:15.056Z,85.40
2018-11-04T00:41:44.264Z,85.60
2018-11-04T00:44:13.460Z,85.60
2018-11-04T00:46:42.541Z,85.60
2018-11-04T00:49:11.749Z,85.70
2018-11-04T00:51:40.917Z,86.10
2018-11-04T00:54:10.701Z,86.30
2018-11-04T00:56:39.857Z,86.20
2018-11-04T00:59:09.472Z,86.20
2018-11-04T01:01:39.653Z,86.50
2018-11-04T01:04:08.700Z,86.50
2018-11-04T01:06:37.832Z,86.70
2018-11-04T01:09:09.269Z,87.00
2018-11-04T01:11:38.526Z,86.90
2018-11-04T01:14:07.596Z,86.90
2018-11-04T01:16:36.680Z,87.40
2018-11-04T01:19:05.797Z,87.10
2018-11-04T01:21:34.940Z,87.10
2018-11-04T01:24:04.016Z,86.90
2018-11-04T01:26:33.175Z,86.70
2018-11-04T01:29:02.289Z,86.70
2018-11-04T01:31:31.413Z,86.70
2018-11-04T01:34:00.476Z,86.50
2018-11-04T01:36:29.633Z,86.50
2018-11-04T01:38:58.740Z,86.70
2018-11-04T01:41:28.871Z,86.70
2018-11-04T01:43:57.936Z,86.40
2018-11-04T01:46:27.448Z,86.30
2018-11-04T01:48:56.453Z,86.20
2018-11-04T01:51:25.482Z,86.10
2018-11-04T01:53:54.575Z,85.90
2018-11-04T01:56:23.661Z,86.00
2018-11-04T01:58:52.828Z,86.10
2018-11-04T02:01:21.968Z,86.10
2018-11-04T02:03:51.056Z,86.10
2018-11-04T02:06:20.160Z,86.20
2018-11-04T02:08:49.436Z,86.20
2018-11-04T02:11:18.524Z,86.20
2018-11-04T02:13:47.616Z,86.40
2018-11-04T02:16:16.823Z,86.40
2018-11-04T02:18:45.996Z,86.40
2018-11-04T02:21:15.053Z,86.40
2018-11-04T02:23:44.247Z,86.40
2018-11-04T02:26:13.344Z,86.50
2018-11-04T02:28:42.480Z,86.50
2018-11-04T02:31:11.751Z,86.60
2018-11-04T02:33:40.860Z,86.50
2018-11-04T02:36:10.049Z,86.50
2018-11-04T02:38:39.165Z,86.50
2018-11-04T02:41:08.436Z,86.50
2018-11-04T02:43:37.520Z,86.50
2018-11-04T02:46:07.068Z,86.50
2018-11-04T02:48:36.601Z,86.40
2018-11-04T02:51:05.660Z,86.50
2018-11-04T02:53:34.804Z,86.60
2018-11-04T02:56:04.118Z,86.70
2018-11-04T02:58:33.160Z,86.80
2018-11-04T03:01:02.597Z,86.70
2018-11-04T03:03:31.694Z,86.70
2018-11-04T03:06:00.828Z,86.80
2018-11-04T03:08:29.876Z,87.00
2018-11-04T03:10:58.932Z,87.20
2018-11-04T03:13:28.016Z,87.30
2018-11-04T03:15:57.089Z,87.40
2018-11-04T03:18:26.236Z,87.50
2018-11-04T03:20:55.353Z,87.50
2018-11-04T03:23:24.468Z,87.50
2018-11-04T03:25:53.675Z,87.50
2018-11-04T03:28:22.734Z,87.40
2018-11-04T03:30:51.815Z,87.20
2018-11-04T03:33:20.892Z,88.00
2018-11-04T03:35:49.965Z,87.10
2018-11-04T03:38:19.067Z,87.10
2018-11-04T03:40:48.161Z,86.80
2018-11-04T03:43:17.206Z,86.60
2018-11-04T03:45:46.298Z,86.40
2018-11-04T03:48:15.436Z,86.40
2018-11-04T03:50:44.581Z,86.50
2018-11-04T03:53:13.671Z,86.60
2018-11-04T03:55:42.750Z,86.80
2018-11-04T03:58:11.850Z,87.10
2018-11-04T04:00:41.002Z,87.10
2018-11-04T04:03:10.093Z,87.30
2018-11-04T04:05:39.252Z,87.50
2018-11-04T04:08:08.296Z,87.50
2018-11-04T04:10:37.358Z,87.40
2018-11-04T04:13:06.819Z,87.30
2018-11-04T04:15:36.013Z,87.20
2018-11-04T04:18:05.097Z,87.10
2018-11-04T04:20:34.232Z,87.00
2018-11-04T04:23:03.400Z,87.00
2018-11-04T04:25:32.513Z,87.00
2018-11-04T04:28:01.652Z,86.80
2018-11-04T04:30:30.723Z,87.50
2018-11-04T04:32:59.853Z,86.80
2018-11-04T04:35:28.923Z,86.80
2018-11-04T04:37:57.983Z,86.80
2018-11-04T04:40:27.198Z,87.00
2018-11-04T04:42:56.454Z,86.90
2018-11-04T04:45:25.647Z,87.00
2018-11-04T04:47:54.805Z,87.00
2018-11-04T04:50:23.930Z,87.30
2018-11-04T04:52:53.935Z,87.30
2018-11-04T04:55:23.032Z,87.30
2018-11-04T04:57:52.224Z,87.10
2018-11-04T05:00:21.321Z,87.20
2018-11-04T05:02:50.442Z,87.00
2018-11-04T05:05:19.546Z,87.10
2018-11-04T05:07:48.660Z,87.10
2018-11-04T05:10:17.757Z,87.40
2018-11-04T05:12:46.855Z,87.60
2018-11-04T05:15:16.130Z,88.00
2018-11-04T05:17:45.237Z,88.40
2018-11-04T05:20:15.461Z,88.70
2018-11-04T05:22:45.428Z,88.80
2018-11-04T05:25:15.440Z,89.10
2018-11-04T05:27:45.497Z,89.00
2018-11-04T05:30:14.625Z,88.90
2018-11-04T05:32:43.813Z,88.80
2018-11-04T05:35:13.038Z,88.90
2018-11-04T05:37:42.416Z,89.00
2018-11-04T05:40:11.529Z,89.00
2018-11-04T05:42:40.762Z,89.10
2018-11-04T05:45:10.133Z,89.00
2018-11-04T05:47:39.302Z,89.70
2018-11-04T05:50:08.417Z,88.70
2018-11-04T05:52:37.950Z,88.50
2018-11-04T05:55:07.933Z,88.30
2018-11-04T05:57:37.209Z,88.30
2018-11-04T06:00:09.994Z,88.20
2018-11-04T06:02:40.841Z,88.10
2018-11-04T06:05:12.124Z,88.00
2018-11-04T06:07:42.117Z,88.00
2018-11-04T06:10:11.848Z,88.00
2018-11-04T06:12:41.774Z,87.90
2018-11-04T06:15:11.168Z,88.00
2018-11-04T06:17:42.287Z,87.90
2018-11-04T06:20:14.153Z,88.10
2018-11-04T06:22:44.783Z,88.20
2018-11-04T06:25:15.872Z,88.20
2018-11-04T06:27:48.716Z,88.20
2018-11-04T06:30:19.094Z,88.20
2018-11-04T06:32:51.097Z,88.40
2018-11-04T06:35:20.812Z,88.70
2018-11-04T06:37:51.390Z,89.90
2018-11-04T06:40:21.667Z,89.30
2018-11-04T06:42:52.725Z,89.60
2018-11-04T06:45:22.771Z,89.70
2018-11-04T06:47:52.296Z,89.90
2018-11-04T06:50:21.817Z,90.00
2018-11-04T06:52:52.102Z,90.10
2018-11-04T06:55:23.484Z,90.10
2018-11-04T06:57:54.031Z,90.50
2018-11-04T07:00:26.651Z,90.10
2018-11-04T07:05:35.341Z,90.10
2018-11-04T07:08:05.482Z,90.10
2018-11-04T07:13:10.370Z,90.00
2018-11-04T07:15:39.662Z,90.30
2018-11-04T07:18:08.880Z,89.80
2018-11-04T07:20:38.193Z,89.80
2018-11-04T07:23:07.322Z,89.60
2018-11-04T07:25:36.561Z,89.40
2018-11-04T07:28:05.901Z,89.10
2018-11-04T07:30:35.167Z,89.00
2018-11-04T07:33:04.328Z,88.70
2018-11-04T07:35:33.852Z,88.80
2018-11-04T07:38:03.010Z,88.70
2018-11-04T07:40:32.242Z,88.40
2018-11-04T07:43:01.537Z,88.40
2018-11-04T07:45:30.775Z,88.50
2018-11-04T07:48:00.295Z,88.40
2018-11-04T07:50:29.599Z,88.10
2018-11-04T07:52:58.998Z,88.00
2018-11-04T07:55:28.085Z,87.80
2018-11-04T07:57:57.552Z,87.70
2018-11-04T08:00:27.153Z,87.90
2018-11-04T08:02:56.468Z,88.40
2018-11-04T08:05:25.639Z,87.80
2018-11-04T08:07:55.091Z,88.00
2018-11-04T08:10:24.220Z,87.80
2018-11-04T08:12:53.501Z,88.00
2018-11-04T08:15:22.792Z,87.90
2018-11-04T08:17:52.043Z,87.70
2018-11-04T08:20:21.312Z,87.70
2018-11-04T08:22:50.464Z,87.60
2018-11-04T08:25:19.670Z,87.20
2018-11-04T08:27:48.952Z,87.00
2018-11-04T08:30:18.532Z,86.70
2018-11-04T08:32:48.025Z,86.20
2018-11-04T08:35:17.167Z,85.80
2018-11-04T08:37:46.589Z,85.50
2018-11-04T08:40:15.863Z,85.30
2018-11-04T08:42:45.400Z,85.30
2018-11-04T08:45:14.693Z,85.20
2018-11-04T08:47:44.201Z,85.40
2018-11-04T08:50:13.657Z,85.50
2018-11-04T08:52:43.122Z,85.60
2018-11-04T08:55:12.353Z,85.70
2018-11-04T08:57:41.792Z,86.00
2018-11-04T09:00:14.400Z,86.20
2018-11-04T09:02:44.849Z,86.50
2018-11-04T09:05:14.081Z,86.60
2018-11-04T09:07:43.269Z,86.60
2018-11-04T09:10:14.753Z,86.50
2018-11-04T09:12:45.160Z,86.10
2018-11-04T09:15:14.791Z,86.10
2018-11-04T09:17:44.190Z,85.80
2018-11-04T09:20:15.010Z,86.00
2018-11-04T09:22:45.007Z,85.50
2018-11-04T09:25:14.573Z,85.00
2018-11-04T09:27:44.161Z,85.00
2018-11-04T09:30:14.570Z,84.90
2018-11-04T09:32:43.906Z,84.60
2018-11-04T09:35:13.700Z,83.90
2018-11-04T09:37:43.051Z,83.70
2018-11-04T09:40:13.440Z,83.40
2018-11-04T09:42:42.911Z,83.30
2018-11-04T09:45:12.339Z,83.40
2018-11-04T09:47:42.081Z,83.50
2018-11-04T09:50:12.270Z,83.50
2018-11-04T09:52:42.537Z,82.80
2018-11-04T09:55:12.614Z,82.00
2018-11-04T09:57:42.006Z,81.50
2018-11-04T10:00:12.671Z,81.50
2018-11-04T10:02:42.004Z,81.50
2018-11-04T10:05:12.004Z,80.10
2018-11-04T10:07:41.255Z,79.50
2018-11-04T10:10:12.887Z,78.70
2018-11-04T10:12:43.377Z,78.60
2018-11-04T10:15:12.589Z,77.80
2018-11-04T10:17:41.987Z,77.00
2018-11-04T10:20:12.445Z,76.70
2018-11-04T10:22:41.560Z,75.80
2018-11-04T10:25:11.781Z,75.60
2018-11-04T10:27:41.767Z,75.10
2018-11-04T10:30:13.697Z,75.00
2018-11-04T10:32:42.933Z,73.70
2018-11-04T10:40:12.186Z,72.50
2018-11-04T10:42:41.457Z,72.10
2018-11-04T10:45:11.495Z,71.20
2018-11-04T10:47:40.699Z,72.20
2018-11-04T10:50:11.500Z,71.80
2018-11-04T10:52:40.666Z,71.40
2018-11-04T10:55:11.269Z,72.40
2018-11-04T10:57:40.381Z,73.10
2018-11-04T11:00:15.724Z,72.80
2018-11-04T11:02:45.120Z,72.80
2018-11-04T11:05:14.327Z,73.30
2018-11-04T11:07:43.647Z,72.80
2018-11-04T11:10:12.797Z,73.70
2018-11-04T11:12:41.857Z,73.50
2018-11-04T11:15:11.666Z,72.50
2018-11-04T11:17:41.086Z,72.40
2018-11-04T11:20:11.445Z,71.90
2018-11-04T11:22:40.815Z,72.00
2018-11-04T11:25:10.562Z,71.70
2018-11-04T11:27:43.989Z,72.10
2018-11-04T11:30:19.742Z,72.00
2018-11-04T11:32:55.220Z,71.30
2018-11-04T11:35:26.156Z,71.80
2018-11-04T11:37:58.304Z,71.20
2018-11-04T11:40:30.090Z,70.90
2018-11-04T11:42:59.823Z,71.10
2018-11-04T11:45:29.484Z,71.10
2018-11-04T11:47:58.996Z,71.60
2018-11-04T11:50:28.498Z,72.00
2018-11-04T11:52:57.599Z,71.70
2018-11-04T11:55:27.456Z,71.80
2018-11-04T11:57:58.231Z,71.70
2018-11-04T12:00:27.866Z,72.60
2018-11-04T12:02:57.687Z,72.60
2018-11-04T12:05:27.546Z,73.40
2018-11-04T12:07:56.908Z,73.40
2018-11-04T12:10:26.381Z,73.40
2018-11-04T12:12:55.773Z,73.50
2018-11-04T12:15:25.257Z,73.10
2018-11-04T12:17:54.648Z,73.40
2018-11-04T12:20:25.174Z,73.50
2018-11-04T12:22:54.900Z,73.70
2018-11-04T12:25:24.696Z,73.40
2018-11-04T12:27:54.333Z,74.00
2018-11-04T12:30:24.852Z,73.40
2018-11-04T12:32:54.458Z,74.10
2018-11-04T12:35:23.987Z,73.80
2018-11-04T12:37:54.147Z,73.80
2018-11-04T12:40:23.732Z,74.20
2018-11-04T12:42:53.320Z,74.40
2018-11-04T12:45:22.954Z,74.40
2018-11-04T12:47:52.738Z,74.10
2018-11-04T12:50:22.225Z,74.60
2018-11-04T12:52:51.675Z,74.20
2018-11-04T12:55:21.646Z,74.10
2018-11-04T12:57:51.290Z,74.50
2018-11-04T13:00:20.624Z,74.00
2018-11-04T13:02:50.178Z,74.80
2018-11-04T13:05:19.620Z,74.70
2018-11-04T13:07:49.038Z,74.50
2018-11-04T13:10:18.261Z,74.40
2018-11-04T13:12:47.482Z,73.80
2018-11-04T13:15:16.785Z,74.70
2018-11-04T13:17:46.106Z,75.10
2018-11-04T13:20:15.469Z,74.90
2018-11-04T13:22:45.062Z,74.90
2018-11-04T13:25:14.843Z,75.50
2018-11-04T13:27:44.341Z,75.40
2018-11-04T13:30:14.652Z,76.70
2018-11-04T13:32:44.168Z,75.60
2018-11-04T13:35:13.590Z,75.90
2018-11-04T13:37:42.974Z,75.70
2018-11-04T13:40:12.756Z,75.90
2018-11-04T13:42:43.031Z,75.30
2018-11-04T13:45:12.856Z,75.40
2018-11-04T13:47:42.614Z,75.60
2018-11-04T13:50:13.373Z,75.70
2018-11-04T13:52:43.020Z,75.70
2018-11-04T13:55:12.700Z,76.10
2018-11-04T13:57:42.609Z,75.90
2018-11-04T14:00:14.332Z,75.80
2018-11-04T14:02:45.154Z,75.40
2018-11-04T14:05:16.359Z,76.00
2018-11-04T14:07:45.428Z,75.80
2018-11-04T14:10:15.836Z,76.20
2018-11-04T14:12:45.481Z,76.20
2018-11-04T14:15:15.885Z,75.90
2018-11-04T14:17:45.091Z,76.60
2018-11-04T14:20:14.235Z,76.50
2018-11-04T14:22:43.562Z,76.80
2018-11-04T14:25:13.172Z,77.20
2018-11-04T14:27:42.329Z,76.70
2018-11-04T14:30:14.220Z,77.10
2018-11-04T14:32:44.011Z,77.00
2018-11-04T14:35:13.237Z,77.40
2018-11-04T14:37:43.391Z,77.20
2018-11-04T14:40:14.224Z,77.10
2018-11-04T14:42:44.066Z,77.20
2018-11-04T14:45:14.220Z,77.80
2018-11-04T14:47:44.024Z,77.70
2018-11-04T14:50:15.893Z,77.60
2018-11-04T14:52:47.371Z,77.70
2018-11-04T14:55:16.366Z,78.00
2018-11-04T14:57:45.715Z,77.80
2018-11-04T15:00:16.028Z,78.10
2018-11-04T15:02:45.732Z,78.00
2018-11-04T15:05:15.324Z,78.10
2018-11-04T15:07:44.415Z,78.30
2018-11-04T15:10:14.740Z,78.60
2018-11-04T15:12:44.021Z,78.70
2018-11-04T15:15:14.848Z,78.80
2018-11-04T15:17:44.064Z,79.00
2018-11-04T15:20:13.512Z,79.10
2018-11-04T15:22:48.985Z,80.20
2018-11-04T15:25:19.716Z,79.50
2018-11-04T15:27:49.294Z,78.90
2018-11-04T15:30:18.677Z,79.80
2018-11-04T15:32:47.877Z,80.00
2018-11-04T15:35:17.706Z,80.10
2018-11-04T15:37:46.997Z,80.30
2018-11-04T15:40:18.029Z,80.50
2018-11-04T15:42:47.341Z,80.60
2018-11-04T15:45:17.478Z,80.80
2018-11-04T15:47:47.025Z,80.90
2018-11-04T15:50:17.824Z,81.00
2018-11-04T15:52:48.332Z,80.90
2018-11-04T15:55:17.808Z,81.10
2018-11-04T15:57:47.220Z,81.20
2018-11-04T16:00:16.480Z,81.40
2018-11-04T16:02:45.754Z,81.50
2018-11-04T16:05:15.290Z,81.50
2018-11-04T16:07:44.721Z,82.40
2018-11-04T16:10:14.379Z,81.90
2018-11-04T16:12:43.974Z,82.00
2018-11-04T16:15:14.839Z,82.10
2018-11-04T16:17:44.866Z,82.50
2018-11-04T16:20:15.206Z,82.40
2018-11-04T16:22:45.220Z,82.60
2018-11-04T16:25:14.699Z,82.80
2018-11-04T16:27:44.477Z,83.10
2018-11-04T16:30:15.071Z,83.20
2018-11-04T16:32:44.600Z,83.40
2018-11-04T16:35:14.758Z,83.60
2018-11-04T16:37:44.921Z,84.30
2018-11-04T16:40:14.164Z,83.70
2018-11-04T16:47:41.949Z,84.00
2018-11-04T16:50:12.254Z,83.70
2018-11-04T16:52:43.187Z,83.90
2018-11-04T16:55:12.886Z,84.30
2018-11-04T16:57:43.264Z,84.50
2018-11-04T17:00:13.110Z,85.20
2018-11-04T17:02:42.268Z,84.60
2018-11-04T17:05:12.637Z,84.80
2018-11-04T17:07:42.998Z,85.10
2018-11-04T17:10:12.205Z,85.10
2018-11-04T17:12:42.000Z,85.20
2018-11-04T17:15:13.117Z,85.20
2018-11-04T17:17:42.444Z,85.30
2018-11-04T17:20:15.140Z,85.30
2018-11-04T17:22:44.620Z,85.50
2018-11-04T17:25:13.811Z,85.80
2018-11-04T17:27:43.268Z,85.90
2018-11-04T17:30:15.445Z,85.90
2018-11-04T17:32:44.941Z,86.20
2018-11-04T17:35:15.877Z,86.20
2018-11-04T17:37:45.392Z,86.40
2018-11-04T17:40:16.060Z,86.50
2018-11-04T17:42:45.298Z,86.50
2018-11-04T17:45:16.271Z,86.50
2018-11-04T17:47:45.909Z,86.60
2018-11-04T17:50:19.415Z,86.70
2018-11-04T17:52:48.576Z,87.60
2018-11-04T17:55:17.767Z,86.50
2018-11-04T17:57:47.087Z,86.70
2018-11-04T18:00:17.128Z,86.60
2018-11-04T18:02:46.280Z,86.70
2018-11-04T18:05:15.456Z,86.80
2018-11-04T18:07:45.030Z,87.00
2018-11-04T18:10:15.309Z,86.90
2018-11-04T18:12:44.547Z,87.00
2018-11-04T18:15:14.592Z,87.00
2018-11-04T18:17:44.002Z,87.20
2018-11-04T18:20:13.374Z,87.10
2018-11-04T18:22:42.861Z,87.30
2018-11-04T18:25:12.918Z,87.30
2018-11-04T18:27:42.349Z,87.40
2018-11-04T18:30:15.631Z,87.50
2018-11-04T18:32:45.269Z,87.50
2018-11-04T18:35:14.444Z,87.50
2018-11-04T18:37:43.776Z,87.60
2018-11-04T18:40:14.319Z,87.60
2018-11-04T18:42:44.057Z,87.60
2018-11-04T18:45:14.710Z,87.70
2018-11-04T18:47:44.328Z,88.00
2018-11-04T18:50:14.396Z,88.20
2018-11-04T18:52:43.623Z,87.90
2018-11-04T18:55:13.130Z,87.90
2018-11-04T18:57:44.404Z,88.00
2018-11-04T19:00:15.751Z,88.20
2018-11-04T19:02:45.425Z,88.30
2018-11-04T19:05:14.627Z,88.20
2018-11-04T19:07:43.696Z,88.20
2018-11-04T19:10:14.209Z,88.10
2018-11-04T19:12:43.627Z,88.10
2018-11-04T19:15:12.702Z,88.30
2018-11-04T19:17:41.876Z,88.30
2018-11-04T19:20:12.632Z,88.40
2018-11-04T19:22:41.835Z,88.60
2018-11-04T19:25:12.107Z,88.40
2018-11-04T19:27:41.454Z,89.30
2018-11-04T19:30:13.318Z,89.20
2018-11-04T19:32:42.754Z,89.30
2018-11-04T19:35:12.576Z,89.20
2018-11-04T19:37:41.733Z,89.10
2018-11-04T19:40:11.988Z,89.20
2018-11-04T19:42:41.246Z,89.20
2018-11-04T19:45:10.277Z,89.90
2018-11-04T19:47:39.601Z,89.10
2018-11-04T19:50:10.887Z,89.20
2018-11-04T19:52:40.013Z,89.20
2018-11-04T19:55:09.680Z,89.30
2018-11-04T19:57:38.708Z,89.60
2018-11-04T20:00:10.430Z,89.50
2018-11-04T20:02:39.494Z,89.50
2018-11-04T20:05:10.273Z,89.50
2018-11-04T20:07:39.232Z,89.40
2018-11-04T20:10:12.297Z,89.30
2018-11-04T20:12:46.655Z,89.50
2018-11-04T20:15:15.913Z,89.50
2018-11-04T20:17:45.686Z,90.10
2018-11-04T20:20:29.385Z,89.70
2018-11-04T20:22:58.468Z,89.50
2018-11-04T20:25:32.762Z,89.60
2018-11-04T20:28:01.728Z,89.70
2018-11-04T20:30:30.799Z,89.90
2018-11-04T20:33:04.945Z,90.00
2018-11-04T20:35:34.034Z,90.00
2018-11-04T20:38:03.132Z,89.90
2018-11-04T20:40:37.565Z,90.00
2018-11-04T20:43:06.594Z,90.00
2018-11-04T20:45:35.681Z,90.00
2018-11-04T20:48:10.355Z,90.10
2018-11-04T20:50:44.761Z,90.10
2018-11-04T20:53:13.793Z,90.10
2018-11-04T20:55:47.992Z,90.20
2018-11-04T20:58:17.306Z,90.20
2018-11-04T21:00:46.189Z,90.20
2018-11-04T21:03:15.334Z,90.30
2018-11-04T21:05:44.371Z,90.30
2018-11-04T21:08:13.412Z,90.20
2018-11-04T21:10:42.405Z,90.20
2018-11-04T21:13:11.449Z,90.20
2018-11-04T21:15:40.521Z,90.30
2018-11-04T21:18:09.736Z,90.30
2018-11-04T21:20:38.852Z,90.30
2018-11-04T21:23:07.901Z,90.30
2018-11-04T21:25:37.097Z,90.30
2018-11-04T21:28:06.264Z,90.30
2018-11-04T21:30:35.086Z,90.30
2018-11-04T21:33:04.236Z,90.40
2018-11-04T21:35:33.360Z,90.40
2018-11-04T21:38:02.699Z,90.30
2018-11-04T21:40:31.590Z,90.40
2018-11-04T21:43:00.671Z,90.30
2018-11-04T21:45:29.691Z,90.30
2018-11-04T21:47:58.748Z,90.30
2018-11-04T21:50:27.902Z,90.40
2018-11-04T21:52:56.901Z,90.30
2018-11-04T21:55:26.100Z,90.30
2018-11-04T21:57:55.040Z,90.30
2018-11-04T22:00:24.124Z,90.30
2018-11-04T22:02:53.383Z,90.30
2018-11-04T22:05:22.219Z,90.50
2018-11-04T22:07:51.300Z,90.50
2018-11-04T22:10:20.386Z,90.40
2018-11-04T22:12:49.492Z,90.50
2018-11-04T22:15:18.560Z,90.40
2018-11-04T22:17:47.628Z,90.40
2018-11-04T22:20:16.754Z,90.30
2018-11-04T22:22:45.813Z,90.30
2018-11-04T22:25:14.931Z,90.30
2018-11-04T22:27:44.408Z,90.20
2018-11-04T22:30:16.365Z,90.20
2018-11-04T22:32:45.424Z,90.10
2018-11-04T22:35:14.632Z,90.20
2018-11-04T22:37:43.668Z,90.20
2018-11-04T22:40:13.309Z,90.10
2018-11-04T22:42:42.777Z,90.20
2018-11-04T22:45:13.248Z,90.20
2018-11-04T22:47:43.204Z,90.30
2018-11-04T22:50:15.430Z,90.40
2018-11-04T22:52:46.672Z,90.50
2018-11-04T22:55:15.769Z,90.40
2018-11-04T22:57:45.125Z,90.40
2018-11-04T23:00:19.484Z,90.40
2018-11-04T23:02:49.619Z,90.50
2018-11-04T23:05:24.044Z,90.70
2018-11-04T23:07:53.136Z,90.60
2018-11-04T23:10:22.160Z,90.70
2018-11-04T23:12:51.240Z,90.80
2018-11-04T23:15:20.354Z,90.80
2018-11-04T23:17:49.540Z,90.80
2018-11-04T23:20:18.661Z,90.80
2018-11-04T23:22:47.863Z,91.20
2018-11-04T23:25:16.959Z,90.80
2018-11-04T23:27:46.077Z,90.70
2018-11-04T23:30:17.380Z,90.60
2018-11-04T23:32:46.990Z,90.60
2018-11-04T23:35:16.098Z,90.60
2018-11-04T23:37:45.497Z,90.50
2018-11-04T23:40:14.676Z,90.40
2018-11-04T23:42:43.705Z,90.50
2018-11-04T23:45:13.875Z,90.50
2018-11-04T23:47:43.171Z,90.40
2018-11-04T23:50:14.988Z,90.50
2018-11-04T23:52:44.437Z,90.80
2018-11-04T23:55:14.220Z,90.50
2018-11-04T23:57:43.318Z,90.60
